NRT weather

Narita International Airport
Tokyo / Narita, Chiba Prefecture, Japan

Public forecast

Using degrees Celsius for public forecast. Weather courtesy of forecast.io.

Current aviation weather report (METAR) for Narita International Airport

Retrieved 2020/08/07 23:30 UTC (15 minutes ago):

RJAA 072330Z 07006KT 020V090 9999 FEW010 BKN013 26/23 Q1009 BECMG 05006KT

Aviation forecast (TAF) for Narita International Airport

Retrieved 2020/08/07 18:00 UTC (6 hours ago):

TAF RJAA 071705Z 0718/0900 04006KT 9999 FEW010 BKN015 BECMG 0803/0805 07006KT